createdAt,value
2022-10-30T00:03:05.350Z,5.90
2022-10-30T00:08:25.948Z,5.90
2022-10-30T00:13:46.743Z,5.93
2022-10-30T00:19:07.710Z,5.95
2022-10-30T00:24:29.290Z,5.72
2022-10-30T00:29:49.732Z,6.88
2022-10-30T00:35:11.265Z,5.78
2022-10-30T00:40:33.123Z,5.65
2022-10-30T00:45:54.122Z,6.00
2022-10-30T00:51:15.268Z,6.72
2022-10-30T00:56:37.054Z,7.93
2022-10-30T01:01:59.032Z,6.30
2022-10-30T01:07:20.064Z,7.05
2022-10-30T01:12:42.382Z,5.80
2022-10-30T01:18:29.339Z,6.93
2022-10-30T01:24:04.139Z,7.13
2022-10-30T01:29:37.169Z,8.05
2022-10-30T01:34:59.663Z,7.60
2022-10-30T01:40:21.422Z,7.85
2022-10-30T01:45:51.245Z,8.68
2022-10-30T01:57:07.763Z,8.57
2022-10-30T02:02:32.947Z,9.10
2022-10-30T02:07:53.791Z,7.50
2022-10-30T02:13:14.860Z,8.05
2022-10-30T02:18:35.799Z,7.97
2022-10-30T02:23:57.432Z,9.55
2022-10-30T02:29:20.823Z,8.48
2022-10-30T02:34:43.003Z,8.20
2022-10-30T02:40:04.499Z,8.05
2022-10-30T02:45:25.478Z,10.73
2022-10-30T02:50:46.174Z,7.95
2022-10-30T02:56:12.860Z,8.85
2022-10-30T03:01:35.195Z,8.45
2022-10-30T03:06:56.270Z,7.93
2022-10-30T03:12:17.287Z,8.77
2022-10-30T03:17:39.065Z,8.55
2022-10-30T03:23:01.436Z,8.90
2022-10-30T03:28:23.485Z,7.60
2022-10-30T03:33:44.722Z,8.90
2022-10-30T03:39:06.276Z,8.68
2022-10-30T03:44:27.546Z,8.73
2022-10-30T03:49:49.508Z,8.52
2022-10-30T03:55:13.902Z,7.78
2022-10-30T04:00:36.975Z,8.15
2022-10-30T04:05:58.559Z,8.10
2022-10-30T04:11:19.329Z,7.85
2022-10-30T04:16:39.868Z,8.73
2022-10-30T04:22:00.862Z,8.65
2022-10-30T04:27:21.553Z,9.43
2022-10-30T04:32:47.662Z,10.05
2022-10-30T04:38:11.454Z,9.25
2022-10-30T04:43:32.330Z,9.02
2022-10-30T04:48:53.238Z,8.95
2022-10-30T04:54:14.188Z,8.40
2022-10-30T04:59:35.294Z,9.07
2022-10-30T05:04:55.947Z,9.07
2022-10-30T05:10:18.416Z,9.00
2022-10-30T05:15:39.568Z,8.30
2022-10-30T05:21:00.194Z,8.95
2022-10-30T05:26:21.062Z,8.60
2022-10-30T05:31:41.832Z,9.52
2022-10-30T05:42:32.392Z,8.18
2022-10-30T05:48:02.783Z,8.48
2022-10-30T05:53:27.953Z,8.70
2022-10-30T05:58:50.493Z,8.65
2022-10-30T06:04:11.543Z,13.00
2022-10-30T06:09:32.279Z,11.00
2022-10-30T06:14:56.101Z,8.50
2022-10-30T06:20:18.767Z,8.98
2022-10-30T06:26:14.184Z,8.32
2022-10-30T06:31:43.467Z,8.20
2022-10-30T06:37:04.391Z,8.65
2022-10-30T06:42:25.413Z,8.38
2022-10-30T06:48:06.458Z,7.28
2022-10-30T06:53:33.607Z,8.00
2022-10-30T06:59:13.134Z,7.95
2022-10-30T07:04:46.747Z,8.45
2022-10-30T07:10:08.096Z,8.25
2022-10-30T07:15:59.263Z,7.63
2022-10-30T07:21:26.919Z,7.85
2022-10-30T07:26:47.764Z,9.25
2022-10-30T07:32:28.690Z,7.90
2022-10-30T07:38:05.233Z,7.68
2022-10-30T07:43:40.888Z,8.10
2022-10-30T07:49:20.590Z,7.57
2022-10-30T07:54:49.847Z,7.30
2022-10-30T08:00:29.409Z,6.30
2022-10-30T08:06:10.451Z,5.15
2022-10-30T08:11:32.739Z,4.85
2022-10-30T08:16:53.684Z,5.93
2022-10-30T08:22:15.188Z,5.75
2022-10-30T08:27:39.609Z,5.15
2022-10-30T08:33:10.125Z,5.50
2022-10-30T08:38:49.267Z,5.80
2022-10-30T08:44:34.675Z,4.95
2022-10-30T08:50:14.993Z,5.20
2022-10-30T08:55:36.057Z,5.97
2022-10-30T09:01:01.629Z,5.22
2022-10-30T09:06:49.140Z,4.40
2022-10-30T09:12:28.687Z,4.20
2022-10-30T09:17:56.764Z,4.40
2022-10-30T09:23:17.759Z,4.90
2022-10-30T09:28:42.223Z,4.18
2022-10-30T09:34:23.369Z,4.63
2022-10-30T09:40:57.782Z,5.60
2022-10-30T09:46:37.715Z,5.63
2022-10-30T09:52:21.738Z,4.47
2022-10-30T09:57:55.014Z,4.68
2022-10-30T10:03:25.551Z,4.45
2022-10-30T10:09:15.001Z,4.15
2022-10-30T10:15:11.859Z,4.20
2022-10-30T10:20:40.393Z,3.97
2022-10-30T10:26:09.168Z,3.97
2022-10-30T10:31:41.905Z,3.00
2022-10-30T10:37:46.892Z,3.50
2022-10-30T10:43:22.980Z,3.40
2022-10-30T10:49:01.974Z,3.78
2022-10-30T10:54:50.785Z,3.20
2022-10-30T11:00:14.623Z,3.08
2022-10-30T11:05:48.155Z,3.50
2022-10-30T11:11:08.849Z,3.30
2022-10-30T11:16:55.374Z,3.47
2022-10-30T11:22:31.651Z,4.25
2022-10-30T11:28:01.147Z,3.60
2022-10-30T11:33:23.156Z,3.65
2022-10-30T11:38:44.094Z,5.13
2022-10-30T11:44:06.613Z,3.60
2022-10-30T11:49:40.425Z,3.30
2022-10-30T11:55:10.587Z,3.83
2022-10-30T12:00:34.737Z,4.22
2022-10-30T12:06:16.350Z,3.38
2022-10-30T12:11:39.676Z,3.90
2022-10-30T12:17:00.282Z,3.97
2022-10-30T12:22:27.529Z,4.20
2022-10-30T12:27:48.298Z,4.30
2022-10-30T12:33:16.332Z,4.50
2022-10-30T12:38:58.675Z,4.18
2022-10-30T12:44:47.466Z,5.03
2022-10-30T12:50:20.610Z,4.03
2022-10-30T12:55:46.337Z,4.05
2022-10-30T13:01:13.240Z,3.35
2022-10-30T13:06:41.457Z,3.85
2022-10-30T13:12:33.761Z,3.40
2022-10-30T13:17:59.001Z,3.65
2022-10-30T13:23:31.530Z,3.85
2022-10-30T13:29:03.754Z,3.85
2022-10-30T13:34:41.238Z,3.83
2022-10-30T13:40:40.681Z,4.47
2022-10-30T13:46:04.332Z,3.45
2022-10-30T13:51:52.730Z,4.03
2022-10-30T13:57:41.693Z,4.38
2022-10-30T14:03:24.396Z,5.03
2022-10-30T14:08:57.377Z,6.07
2022-10-30T14:14:24.332Z,6.10
2022-10-30T14:20:14.383Z,7.20
2022-10-30T14:25:35.811Z,6.95
2022-10-30T14:31:13.365Z,4.63
2022-10-30T14:36:34.006Z,5.05
2022-10-30T14:42:16.240Z,4.70
2022-10-30T14:48:16.113Z,5.50
2022-10-30T14:54:01.381Z,5.70
2022-10-30T14:59:33.619Z,4.88
2022-10-30T15:05:23.759Z,4.63
2022-10-30T15:11:02.794Z,5.13
2022-10-30T15:16:24.613Z,5.40
2022-10-30T15:21:50.133Z,5.47
2022-10-30T15:27:19.455Z,6.28
2022-10-30T15:32:41.273Z,5.65
2022-10-30T15:38:07.378Z,5.40
2022-10-30T15:43:35.733Z,6.10
2022-10-30T15:48:56.646Z,5.70
2022-10-30T15:54:21.361Z,4.93
2022-10-30T15:59:51.936Z,6.07
2022-10-30T16:05:21.601Z,5.88
2022-10-30T16:16:05.653Z,6.60
2022-10-30T16:21:31.212Z,7.10
2022-10-30T16:27:15.875Z,7.45
2022-10-30T16:32:36.821Z,9.70
2022-10-30T16:37:57.969Z,9.05
2022-10-30T16:43:26.730Z,8.00
2022-10-30T16:48:58.755Z,8.68
2022-10-30T16:54:23.663Z,24.73
2022-10-30T16:59:48.436Z,27.73
2022-10-30T17:05:23.067Z,18.48
2022-10-30T17:11:22.307Z,17.08
2022-10-30T17:16:53.081Z,12.05
2022-10-30T17:22:18.158Z,11.70
2022-10-30T17:27:57.713Z,14.75
2022-10-30T17:38:44.618Z,12.77
2022-10-30T17:44:06.511Z,12.85
2022-10-30T17:49:32.393Z,12.30
2022-10-30T17:54:53.604Z,12.95
2022-10-30T18:00:14.737Z,12.65
2022-10-30T18:05:36.401Z,13.32
2022-10-30T18:10:57.005Z,13.82
2022-10-30T18:16:19.109Z,13.25
2022-10-30T18:21:41.020Z,13.05
2022-10-30T18:27:01.959Z,14.32
2022-10-30T18:32:22.594Z,12.48
2022-10-30T18:37:43.305Z,10.45
2022-10-30T18:43:04.107Z,11.07
2022-10-30T18:48:24.899Z,9.50
2022-10-30T18:53:52.087Z,10.00
2022-10-30T18:59:12.961Z,10.18
2022-10-30T19:04:33.713Z,10.00
2022-10-30T19:09:55.893Z,10.25
2022-10-30T19:15:26.381Z,10.63
2022-10-30T19:21:05.132Z,9.77
2022-10-30T19:26:28.009Z,11.68
2022-10-30T19:31:49.327Z,11.80
2022-10-30T19:37:10.257Z,12.00
2022-10-30T19:42:31.057Z,10.75
2022-10-30T19:47:57.005Z,11.57
2022-10-30T19:53:17.730Z,12.60
2022-10-30T19:58:39.739Z,11.35
2022-10-30T20:04:00.232Z,14.65
2022-10-30T20:09:22.543Z,17.17
2022-10-30T20:14:43.206Z,18.20
2022-10-30T20:20:04.132Z,15.52
2022-10-30T20:25:26.723Z,15.02
2022-10-30T20:30:47.973Z,14.55
2022-10-30T20:36:12.082Z,15.38
2022-10-30T20:41:33.345Z,12.32
2022-10-30T20:46:53.880Z,11.90
2022-10-30T20:52:14.780Z,13.52
2022-10-30T20:57:35.361Z,12.60
2022-10-30T21:02:56.158Z,12.65
2022-10-30T21:08:16.894Z,13.45
2022-10-30T21:13:39.447Z,13.98
2022-10-30T21:19:00.175Z,13.77
2022-10-30T21:24:20.907Z,12.30
2022-10-30T21:29:41.583Z,15.05
2022-10-30T21:35:02.373Z,15.80
2022-10-30T21:40:22.999Z,15.40
2022-10-30T21:45:43.621Z,17.27
2022-10-30T21:51:12.740Z,16.20
2022-10-30T21:56:36.215Z,17.38
2022-10-30T22:01:57.114Z,17.20
2022-10-30T22:07:18.578Z,16.08
2022-10-30T22:12:39.411Z,17.15
2022-10-30T22:18:00.320Z,16.73
2022-10-30T22:23:21.053Z,15.05
2022-10-30T22:28:42.396Z,16.35
2022-10-30T22:34:03.160Z,15.30
2022-10-30T22:39:23.859Z,16.63
2022-10-30T22:44:44.527Z,14.30
2022-10-30T22:50:05.643Z,15.10
2022-10-30T22:55:28.314Z,15.77
2022-10-30T23:00:48.908Z,13.73
2022-10-30T23:06:09.777Z,12.95
2022-10-30T23:11:31.147Z,14.77
2022-10-30T23:16:51.875Z,15.20
2022-10-30T23:22:12.784Z,14.85
2022-10-30T23:27:33.409Z,14.50
2022-10-30T23:32:54.494Z,14.30
2022-10-30T23:38:15.131Z,13.75
2022-10-30T23:43:35.888Z,14.43
2022-10-30T23:48:57.132Z,15.23
2022-10-30T23:54:18.125Z,15.88
2022-10-30T23:59:38.571Z,14.48
